sensor_id;sensor_type;location;lat;lon;timestamp;P1;durP1;ratioP1;P2;durP2;ratioP2
76403;SDS011;65232;48.358;2.122;2022-12-07T00:00:09;20.50;;;11.75;;
76403;SDS011;65232;48.358;2.122;2022-12-07T00:00:35;23.00;;;12.85;;
76403;SDS011;65232;48.358;2.122;2022-12-07T00:01:07;21.25;;;12.88;;
76403;SDS011;65232;48.358;2.122;2022-12-07T00:01:38;22.13;;;13.18;;
76403;SDS011;65232;48.358;2.122;2022-12-07T00:02:05;21.48;;;12.98;;
76403;SDS011;65232;48.358;2.122;2022-12-07T00:02:30;19.90;;;11.98;;
76403;SDS011;65232;48.358;2.122;2022-12-07T00:02:56;21.25;;;12.23;;
76403;SDS011;65232;48.358;2.122;2022-12-07T00:03:21;21.52;;;12.85;;
76403;SDS011;65232;48.358;2.122;2022-12-07T00:03:47;21.92;;;13.07;;
76403;SDS011;65232;48.358;2.122;2022-12-07T00:04:15;22.30;;;12.50;;
76403;SDS011;65232;48.358;2.122;2022-12-07T00:04:41;22.35;;;11.63;;
76403;SDS011;65232;48.358;2.122;2022-12-07T00:05:07;22.27;;;13.30;;
76403;SDS011;65232;48.358;2.122;2022-12-07T00:05:32;21.58;;;11.63;;
76403;SDS011;65232;48.358;2.122;2022-12-07T00:05:58;20.48;;;11.90;;
76403;SDS011;65232;48.358;2.122;2022-12-07T00:06:24;22.00;;;12.57;;
76403;SDS011;65232;48.358;2.122;2022-12-07T00:06:52;21.80;;;12.45;;
76403;SDS011;65232;48.358;2.122;2022-12-07T00:07:18;21.20;;;12.18;;
76403;SDS011;65232;48.358;2.122;2022-12-07T00:07:43;21.10;;;12.05;;
76403;SDS011;65232;48.358;2.122;2022-12-07T00:08:08;24.48;;;12.93;;
76403;SDS011;65232;48.358;2.122;2022-12-07T00:08:34;19.10;;;11.57;;
76403;SDS011;65232;48.358;2.122;2022-12-07T00:09:00;21.25;;;12.48;;
76403;SDS011;65232;48.358;2.122;2022-12-07T00:09:25;23.17;;;12.77;;
76403;SDS011;65232;48.358;2.122;2022-12-07T00:09:51;21.27;;;12.40;;
76403;SDS011;65232;48.358;2.122;2022-12-07T00:10:16;21.50;;;12.52;;
76403;SDS011;65232;48.358;2.122;2022-12-07T00:10:41;21.95;;;12.38;;
76403;SDS011;65232;48.358;2.122;2022-12-07T00:11:08;22.08;;;12.50;;
76403;SDS011;65232;48.358;2.122;2022-12-07T00:11:38;20.15;;;12.50;;
76403;SDS011;65232;48.358;2.122;2022-12-07T00:12:03;23.33;;;12.90;;
76403;SDS011;65232;48.358;2.122;2022-12-07T00:12:29;20.95;;;12.40;;
76403;SDS011;65232;48.358;2.122;2022-12-07T00:12:54;21.52;;;12.77;;
76403;SDS011;65232;48.358;2.122;2022-12-07T00:13:20;19.98;;;12.23;;
76403;SDS011;65232;48.358;2.122;2022-12-07T00:13:45;22.15;;;12.20;;
76403;SDS011;65232;48.358;2.122;2022-12-07T00:14:13;20.95;;;12.32;;
76403;SDS011;65232;48.358;2.122;2022-12-07T00:14:40;19.33;;;12.00;;
76403;SDS011;65232;48.358;2.122;2022-12-07T00:15:05;22.48;;;11.80;;
76403;SDS011;65232;48.358;2.122;2022-12-07T00:15:33;21.08;;;12.60;;
76403;SDS011;65232;48.358;2.122;2022-12-07T00:16:00;21.80;;;11.88;;
76403;SDS011;65232;48.358;2.122;2022-12-07T00:16:30;20.40;;;11.88;;
76403;SDS011;65232;48.358;2.122;2022-12-07T00:16:56;20.80;;;12.40;;
76403;SDS011;65232;48.358;2.122;2022-12-07T00:17:22;22.17;;;12.88;;
76403;SDS011;65232;48.358;2.122;2022-12-07T00:17:47;21.67;;;13.05;;
76403;SDS011;65232;48.358;2.122;2022-12-07T00:18:12;21.42;;;12.30;;
76403;SDS011;65232;48.358;2.122;2022-12-07T00:18:38;20.92;;;12.48;;
76403;SDS011;65232;48.358;2.122;2022-12-07T00:19:04;23.73;;;13.00;;
76403;SDS011;65232;48.358;2.122;2022-12-07T00:19:29;20.25;;;12.20;;
76403;SDS011;65232;48.358;2.122;2022-12-07T00:19:55;23.58;;;13.20;;
76403;SDS011;65232;48.358;2.122;2022-12-07T00:20:20;23.38;;;12.45;;
76403;SDS011;65232;48.358;2.122;2022-12-07T00:20:45;22.85;;;12.77;;
76403;SDS011;65232;48.358;2.122;2022-12-07T00:21:18;24.10;;;13.07;;
76403;SDS011;65232;48.358;2.122;2022-12-07T00:21:46;20.33;;;12.23;;
76403;SDS011;65232;48.358;2.122;2022-12-07T00:22:11;22.80;;;13.00;;
76403;SDS011;65232;48.358;2.122;2022-12-07T00:22:36;21.10;;;12.07;;
76403;SDS011;65232;48.358;2.122;2022-12-07T00:23:02;23.10;;;12.43;;
76403;SDS011;65232;48.358;2.122;2022-12-07T00:23:27;23.02;;;12.77;;
76403;SDS011;65232;48.358;2.122;2022-12-07T00:23:53;25.08;;;13.10;;
76403;SDS011;65232;48.358;2.122;2022-12-07T00:24:19;24.48;;;12.35;;
76403;SDS011;65232;48.358;2.122;2022-12-07T00:24:46;22.83;;;13.27;;
76403;SDS011;65232;48.358;2.122;2022-12-07T00:25:11;23.02;;;13.00;;
76403;SDS011;65232;48.358;2.122;2022-12-07T00:25:36;19.65;;;11.82;;
76403;SDS011;65232;48.358;2.122;2022-12-07T00:26:08;21.20;;;12.95;;
76403;SDS011;65232;48.358;2.122;2022-12-07T00:26:36;21.02;;;11.68;;
76403;SDS011;65232;48.358;2.122;2022-12-07T00:27:03;22.35;;;12.73;;
76403;SDS011;65232;48.358;2.122;2022-12-07T00:27:29;22.38;;;12.30;;
76403;SDS011;65232;48.358;2.122;2022-12-07T00:27:54;25.77;;;12.77;;
76403;SDS011;65232;48.358;2.122;2022-12-07T00:28:21;21.33;;;12.13;;
76403;SDS011;65232;48.358;2.122;2022-12-07T00:28:47;23.13;;;13.20;;
76403;SDS011;65232;48.358;2.122;2022-12-07T00:29:18;22.38;;;13.32;;
76403;SDS011;65232;48.358;2.122;2022-12-07T00:29:45;21.33;;;12.32;;
76403;SDS011;65232;48.358;2.122;2022-12-07T00:30:10;20.38;;;12.13;;
76403;SDS011;65232;48.358;2.122;2022-12-07T00:30:36;25.23;;;12.88;;
76403;SDS011;65232;48.358;2.122;2022-12-07T00:31:05;22.60;;;12.93;;
76403;SDS011;65232;48.358;2.122;2022-12-07T00:31:34;25.15;;;12.77;;
76403;SDS011;65232;48.358;2.122;2022-12-07T00:32:03;24.17;;;12.15;;
76403;SDS011;65232;48.358;2.122;2022-12-07T00:32:29;23.67;;;13.35;;
76403;SDS011;65232;48.358;2.122;2022-12-07T00:32:54;26.77;;;14.18;;
76403;SDS011;65232;48.358;2.122;2022-12-07T00:33:19;25.25;;;13.00;;
76403;SDS011;65232;48.358;2.122;2022-12-07T00:33:45;25.13;;;13.63;;
76403;SDS011;65232;48.358;2.122;2022-12-07T00:34:15;23.08;;;13.32;;
76403;SDS011;65232;48.358;2.122;2022-12-07T00:34:44;22.23;;;13.68;;
76403;SDS011;65232;48.358;2.122;2022-12-07T00:35:10;25.45;;;13.57;;
76403;SDS011;65232;48.358;2.122;2022-12-07T00:35:35;23.92;;;13.82;;
76403;SDS011;65232;48.358;2.122;2022-12-07T00:36:01;23.45;;;13.48;;
76403;SDS011;65232;48.358;2.122;2022-12-07T00:36:28;24.95;;;12.98;;
76403;SDS011;65232;48.358;2.122;2022-12-07T00:36:53;23.52;;;13.15;;
76403;SDS011;65232;48.358;2.122;2022-12-07T00:37:18;26.13;;;13.88;;
76403;SDS011;65232;48.358;2.122;2022-12-07T00:37:44;26.15;;;13.43;;
76403;SDS011;65232;48.358;2.122;2022-12-07T00:38:09;22.60;;;13.57;;
76403;SDS011;65232;48.358;2.122;2022-12-07T00:38:35;20.90;;;12.48;;
76403;SDS011;65232;48.358;2.122;2022-12-07T00:39:02;22.63;;;12.93;;
76403;SDS011;65232;48.358;2.122;2022-12-07T00:39:28;21.50;;;11.93;;
76403;SDS011;65232;48.358;2.122;2022-12-07T00:39:53;21.70;;;12.25;;
76403;SDS011;65232;48.358;2.122;2022-12-07T00:40:19;22.83;;;12.88;;
76403;SDS011;65232;48.358;2.122;2022-12-07T00:40:44;22.23;;;12.52;;
76403;SDS011;65232;48.358;2.122;2022-12-07T00:41:20;22.75;;;12.15;;
76403;SDS011;65232;48.358;2.122;2022-12-07T00:41:47;20.95;;;12.88;;
76403;SDS011;65232;48.358;2.122;2022-12-07T00:42:12;21.38;;;11.93;;
76403;SDS011;65232;48.358;2.122;2022-12-07T00:42:38;19.83;;;12.52;;
76403;SDS011;65232;48.358;2.122;2022-12-07T00:43:03;20.30;;;11.85;;
76403;SDS011;65232;48.358;2.122;2022-12-07T00:43:28;22.80;;;12.75;;
76403;SDS011;65232;48.358;2.122;2022-12-07T00:43:54;22.08;;;11.55;;
76403;SDS011;65232;48.358;2.122;2022-12-07T00:44:20;21.92;;;12.38;;
76403;SDS011;65232;48.358;2.122;2022-12-07T00:44:45;25.10;;;13.18;;
76403;SDS011;65232;48.358;2.122;2022-12-07T00:45:10;22.17;;;12.88;;
76403;SDS011;65232;48.358;2.122;2022-12-07T00:45:36;23.23;;;13.18;;
76403;SDS011;65232;48.358;2.122;2022-12-07T00:46:01;22.55;;;13.07;;
76403;SDS011;65232;48.358;2.122;2022-12-07T00:46:26;24.35;;;13.43;;
76403;SDS011;65232;48.358;2.122;2022-12-07T00:46:52;22.02;;;13.02;;
76403;SDS011;65232;48.358;2.122;2022-12-07T00:47:17;26.90;;;14.32;;
76403;SDS011;65232;48.358;2.122;2022-12-07T00:47:43;23.15;;;13.45;;
76403;SDS011;65232;48.358;2.122;2022-12-07T00:48:08;23.25;;;13.27;;
76403;SDS011;65232;48.358;2.122;2022-12-07T00:48:34;25.35;;;13.68;;
76403;SDS011;65232;48.358;2.122;2022-12-07T00:48:59;21.80;;;12.85;;
76403;SDS011;65232;48.358;2.122;2022-12-07T00:49:25;24.05;;;13.80;;
76403;SDS011;65232;48.358;2.122;2022-12-07T00:49:50;25.73;;;14.10;;
76403;SDS011;65232;48.358;2.122;2022-12-07T00:50:16;21.45;;;13.48;;
76403;SDS011;65232;48.358;2.122;2022-12-07T00:50:41;25.25;;;13.32;;
76403;SDS011;65232;48.358;2.122;2022-12-07T00:51:07;25.52;;;14.27;;
76403;SDS011;65232;48.358;2.122;2022-12-07T00:51:34;23.42;;;13.32;;
76403;SDS011;65232;48.358;2.122;2022-12-07T00:52:00;23.50;;;12.50;;
76403;SDS011;65232;48.358;2.122;2022-12-07T00:52:25;22.80;;;13.82;;
76403;SDS011;65232;48.358;2.122;2022-12-07T00:52:50;22.95;;;13.32;;
76403;SDS011;65232;48.358;2.122;2022-12-07T00:53:16;22.25;;;13.05;;
76403;SDS011;65232;48.358;2.122;2022-12-07T00:53:41;25.70;;;13.32;;
76403;SDS011;65232;48.358;2.122;2022-12-07T00:54:07;26.23;;;13.57;;
76403;SDS011;65232;48.358;2.122;2022-12-07T00:54:32;23.60;;;13.77;;
76403;SDS011;65232;48.358;2.122;2022-12-07T00:54:58;23.63;;;12.95;;
76403;SDS011;65232;48.358;2.122;2022-12-07T00:55:23;25.90;;;14.30;;
76403;SDS011;65232;48.358;2.122;2022-12-07T00:55:48;23.70;;;12.90;;
76403;SDS011;65232;48.358;2.122;2022-12-07T00:56:15;23.00;;;12.77;;
76403;SDS011;65232;48.358;2.122;2022-12-07T00:56:49;20.98;;;11.88;;
76403;SDS011;65232;48.358;2.122;2022-12-07T00:57:14;22.10;;;13.20;;
76403;SDS011;65232;48.358;2.122;2022-12-07T00:57:39;20.00;;;12.48;;
76403;SDS011;65232;48.358;2.122;2022-12-07T00:58:05;23.75;;;12.30;;
76403;SDS011;65232;48.358;2.122;2022-12-07T00:58:30;23.45;;;13.95;;
76403;SDS011;65232;48.358;2.122;2022-12-07T00:58:57;22.35;;;12.30;;
76403;SDS011;65232;48.358;2.122;2022-12-07T00:59:26;22.30;;;13.15;;
76403;SDS011;65232;48.358;2.122;2022-12-07T00:59:52;21.08;;;12.35;;
76403;SDS011;65232;48.358;2.122;2022-12-07T01:00:20;26.02;;;14.40;;
76403;SDS011;65232;48.358;2.122;2022-12-07T01:00:45;22.13;;;12.63;;
76403;SDS011;65232;48.358;2.122;2022-12-07T01:01:11;23.02;;;13.07;;
76403;SDS011;65232;48.358;2.122;2022-12-07T01:01:36;21.75;;;12.80;;
76403;SDS011;65232;48.358;2.122;2022-12-07T01:02:02;22.33;;;12.85;;
76403;SDS011;65232;48.358;2.122;2022-12-07T01:02:27;23.73;;;13.48;;
76403;SDS011;65232;48.358;2.122;2022-12-07T01:02:52;22.20;;;13.20;;
76403;SDS011;65232;48.358;2.122;2022-12-07T01:03:18;21.98;;;13.43;;
76403;SDS011;65232;48.358;2.122;2022-12-07T01:03:43;23.27;;;13.82;;
76403;SDS011;65232;48.358;2.122;2022-12-07T01:04:08;22.40;;;12.20;;
76403;SDS011;65232;48.358;2.122;2022-12-07T01:04:34;20.85;;;13.80;;
76403;SDS011;65232;48.358;2.122;2022-12-07T01:04:59;25.27;;;14.05;;
76403;SDS011;65232;48.358;2.122;2022-12-07T01:05:25;24.02;;;13.35;;
76403;SDS011;65232;48.358;2.122;2022-12-07T01:05:51;22.10;;;13.30;;
76403;SDS011;65232;48.358;2.122;2022-12-07T01:06:18;23.55;;;12.63;;
76403;SDS011;65232;48.358;2.122;2022-12-07T01:06:44;24.38;;;13.65;;
76403;SDS011;65232;48.358;2.122;2022-12-07T01:07:10;23.25;;;13.45;;
76403;SDS011;65232;48.358;2.122;2022-12-07T01:07:35;24.17;;;13.35;;
76403;SDS011;65232;48.358;2.122;2022-12-07T01:08:01;21.75;;;12.77;;
76403;SDS011;65232;48.358;2.122;2022-12-07T01:08:27;21.90;;;12.90;;
76403;SDS011;65232;48.358;2.122;2022-12-07T01:09:18;20.23;;;12.02;;
76403;SDS011;65232;48.358;2.122;2022-12-07T01:09:44;22.33;;;12.05;;
76403;SDS011;65232;48.358;2.122;2022-12-07T01:10:09;20.40;;;12.82;;
76403;SDS011;65232;48.358;2.122;2022-12-07T01:10:35;22.52;;;12.27;;
76403;SDS011;65232;48.358;2.122;2022-12-07T01:11:05;22.08;;;12.00;;
76403;SDS011;65232;48.358;2.122;2022-12-07T01:11:32;21.13;;;11.75;;
76403;SDS011;65232;48.358;2.122;2022-12-07T01:11:58;20.55;;;11.88;;
76403;SDS011;65232;48.358;2.122;2022-12-07T01:12:23;18.48;;;11.98;;
76403;SDS011;65232;48.358;2.122;2022-12-07T01:12:48;19.27;;;11.32;;
76403;SDS011;65232;48.358;2.122;2022-12-07T01:13:14;22.65;;;13.00;;
76403;SDS011;65232;48.358;2.122;2022-12-07T01:13:40;23.65;;;12.80;;
76403;SDS011;65232;48.358;2.122;2022-12-07T01:14:05;18.88;;;11.65;;
76403;SDS011;65232;48.358;2.122;2022-12-07T01:14:31;20.58;;;12.30;;
76403;SDS011;65232;48.358;2.122;2022-12-07T01:14:56;20.17;;;12.63;;
76403;SDS011;65232;48.358;2.122;2022-12-07T01:15:22;21.75;;;11.88;;
76403;SDS011;65232;48.358;2.122;2022-12-07T01:15:47;22.33;;;13.32;;
76403;SDS011;65232;48.358;2.122;2022-12-07T01:16:13;22.63;;;12.25;;
76403;SDS011;65232;48.358;2.122;2022-12-07T01:16:40;22.80;;;12.52;;
76403;SDS011;65232;48.358;2.122;2022-12-07T01:17:06;22.23;;;13.18;;
76403;SDS011;65232;48.358;2.122;2022-12-07T01:17:31;24.02;;;11.95;;
76403;SDS011;65232;48.358;2.122;2022-12-07T01:17:57;24.33;;;13.73;;
76403;SDS011;65232;48.358;2.122;2022-12-07T01:18:22;20.92;;;11.38;;
76403;SDS011;65232;48.358;2.122;2022-12-07T01:18:48;21.33;;;11.93;;
76403;SDS011;65232;48.358;2.122;2022-12-07T01:19:15;19.45;;;10.95;;
76403;SDS011;65232;48.358;2.122;2022-12-07T01:19:40;21.80;;;11.43;;
76403;SDS011;65232;48.358;2.122;2022-12-07T01:20:06;19.17;;;12.32;;
76403;SDS011;65232;48.358;2.122;2022-12-07T01:20:32;21.73;;;12.75;;
76403;SDS011;65232;48.358;2.122;2022-12-07T01:21:01;20.48;;;12.20;;
76403;SDS011;65232;48.358;2.122;2022-12-07T01:21:31;23.05;;;13.15;;
76403;SDS011;65232;48.358;2.122;2022-12-07T01:22:00;23.48;;;13.95;;
76403;SDS011;65232;48.358;2.122;2022-12-07T01:22:26;23.88;;;12.35;;
76403;SDS011;65232;48.358;2.122;2022-12-07T01:22:51;21.15;;;12.50;;
76403;SDS011;65232;48.358;2.122;2022-12-07T01:23:17;20.95;;;12.43;;
76403;SDS011;65232;48.358;2.122;2022-12-07T01:23:42;22.00;;;12.57;;
76403;SDS011;65232;48.358;2.122;2022-12-07T01:24:10;21.45;;;11.95;;
76403;SDS011;65232;48.358;2.122;2022-12-07T01:24:36;22.25;;;11.27;;
76403;SDS011;65232;48.358;2.122;2022-12-07T01:25:01;19.83;;;11.82;;
76403;SDS011;65232;48.358;2.122;2022-12-07T01:25:27;21.02;;;12.68;;
76403;SDS011;65232;48.358;2.122;2022-12-07T01:25:55;23.38;;;12.68;;
76403;SDS011;65232;48.358;2.122;2022-12-07T01:26:22;18.67;;;11.85;;
76403;SDS011;65232;48.358;2.122;2022-12-07T01:26:49;19.67;;;12.18;;
76403;SDS011;65232;48.358;2.122;2022-12-07T01:27:14;24.20;;;12.27;;
76403;SDS011;65232;48.358;2.122;2022-12-07T01:27:40;22.10;;;12.20;;
76403;SDS011;65232;48.358;2.122;2022-12-07T01:28:06;23.38;;;12.50;;
76403;SDS011;65232;48.358;2.122;2022-12-07T01:28:31;21.48;;;13.02;;
76403;SDS011;65232;48.358;2.122;2022-12-07T01:28:57;20.20;;;11.80;;
76403;SDS011;65232;48.358;2.122;2022-12-07T01:29:24;22.50;;;12.50;;
76403;SDS011;65232;48.358;2.122;2022-12-07T01:29:50;19.73;;;12.02;;
76403;SDS011;65232;48.358;2.122;2022-12-07T01:30:15;24.63;;;12.73;;
76403;SDS011;65232;48.358;2.122;2022-12-07T01:30:41;23.05;;;12.52;;
76403;SDS011;65232;48.358;2.122;2022-12-07T01:31:07;22.90;;;12.95;;
76403;SDS011;65232;48.358;2.122;2022-12-07T01:31:39;19.48;;;11.95;;
76403;SDS011;65232;48.358;2.122;2022-12-07T01:32:05;24.80;;;13.15;;
76403;SDS011;65232;48.358;2.122;2022-12-07T01:32:30;24.90;;;11.98;;
76403;SDS011;65232;48.358;2.122;2022-12-07T01:32:55;24.42;;;12.45;;
76403;SDS011;65232;48.358;2.122;2022-12-07T01:33:21;22.73;;;12.20;;
76403;SDS011;65232;48.358;2.122;2022-12-07T01:33:47;23.08;;;13.57;;
76403;SDS011;65232;48.358;2.122;2022-12-07T01:34:14;22.10;;;12.52;;
76403;SDS011;65232;48.358;2.122;2022-12-07T01:34:39;22.50;;;11.82;;
76403;SDS011;65232;48.358;2.122;2022-12-07T01:35:05;22.92;;;12.70;;
76403;SDS011;65232;48.358;2.122;2022-12-07T01:35:33;22.77;;;12.60;;
76403;SDS011;65232;48.358;2.122;2022-12-07T01:36:05;24.60;;;13.88;;
76403;SDS011;65232;48.358;2.122;2022-12-07T01:36:42;22.70;;;12.90;;
76403;SDS011;65232;48.358;2.122;2022-12-07T01:37:07;24.05;;;12.98;;
76403;SDS011;65232;48.358;2.122;2022-12-07T01:37:36;25.23;;;13.05;;
76403;SDS011;65232;48.358;2.122;2022-12-07T01:38:02;22.98;;;12.32;;
76403;SDS011;65232;48.358;2.122;2022-12-07T01:38:28;25.73;;;12.77;;
76403;SDS011;65232;48.358;2.122;2022-12-07T01:38:57;27.17;;;13.48;;
76403;SDS011;65232;48.358;2.122;2022-12-07T01:39:24;20.48;;;12.45;;
76403;SDS011;65232;48.358;2.122;2022-12-07T01:39:50;24.75;;;12.45;;
76403;SDS011;65232;48.358;2.122;2022-12-07T01:40:16;24.35;;;13.98;;
76403;SDS011;65232;48.358;2.122;2022-12-07T01:40:41;21.15;;;12.52;;
76403;SDS011;65232;48.358;2.122;2022-12-07T01:41:07;21.45;;;11.63;;
76403;SDS011;65232;48.358;2.122;2022-12-07T01:41:34;22.85;;;12.95;;
76403;SDS011;65232;48.358;2.122;2022-12-07T01:42:05;22.40;;;11.98;;
76403;SDS011;65232;48.358;2.122;2022-12-07T01:42:30;23.42;;;12.45;;
76403;SDS011;65232;48.358;2.122;2022-12-07T01:42:56;25.65;;;12.75;;
76403;SDS011;65232;48.358;2.122;2022-12-07T01:43:21;24.90;;;13.55;;
76403;SDS011;65232;48.358;2.122;2022-12-07T01:45:42;19.63;;;10.80;;
76403;SDS011;65232;48.358;2.122;2022-12-07T01:46:08;21.20;;;11.15;;
76403;SDS011;65232;48.358;2.122;2022-12-07T01:46:33;23.52;;;12.40;;
76403;SDS011;65232;48.358;2.122;2022-12-07T01:47:00;21.15;;;12.13;;
76403;SDS011;65232;48.358;2.122;2022-12-07T01:47:27;20.83;;;11.60;;
76403;SDS011;65232;48.358;2.122;2022-12-07T01:47:53;26.15;;;13.23;;
76403;SDS011;65232;48.358;2.122;2022-12-07T01:48:28;22.58;;;12.65;;
76403;SDS011;65232;48.358;2.122;2022-12-07T01:48:57;24.23;;;12.65;;
76403;SDS011;65232;48.358;2.122;2022-12-07T01:49:58;20.20;;;12.27;;
76403;SDS011;65232;48.358;2.122;2022-12-07T01:50:26;24.98;;;13.25;;
76403;SDS011;65232;48.358;2.122;2022-12-07T01:50:53;22.15;;;12.30;;
76403;SDS011;65232;48.358;2.122;2022-12-07T01:51:24;22.50;;;12.38;;
76403;SDS011;65232;48.358;2.122;2022-12-07T01:51:52;24.55;;;13.30;;
76403;SDS011;65232;48.358;2.122;2022-12-07T01:52:27;25.65;;;12.60;;
76403;SDS011;65232;48.358;2.122;2022-12-07T01:52:55;22.20;;;12.70;;
76403;SDS011;65232;48.358;2.122;2022-12-07T01:53:24;22.52;;;12.27;;
76403;SDS011;65232;48.358;2.122;2022-12-07T01:53:53;26.05;;;13.10;;
76403;SDS011;65232;48.358;2.122;2022-12-07T01:54:19;27.67;;;13.25;;
76403;SDS011;65232;48.358;2.122;2022-12-07T01:55:13;24.80;;;12.65;;
76403;SDS011;65232;48.358;2.122;2022-12-07T01:55:42;28.08;;;12.65;;
76403;SDS011;65232;48.358;2.122;2022-12-07T01:56:11;25.98;;;12.50;;
76403;SDS011;65232;48.358;2.122;2022-12-07T01:56:44;25.13;;;12.32;;
76403;SDS011;65232;48.358;2.122;2022-12-07T01:57:16;25.42;;;12.50;;
76403;SDS011;65232;48.358;2.122;2022-12-07T01:57:47;25.80;;;12.70;;
76403;SDS011;65232;48.358;2.122;2022-12-07T01:58:14;25.17;;;13.20;;
76403;SDS011;65232;48.358;2.122;2022-12-07T01:58:41;28.10;;;13.68;;
76403;SDS011;65232;48.358;2.122;2022-12-07T01:59:07;30.70;;;15.43;;
76403;SDS011;65232;48.358;2.122;2022-12-07T01:59:33;29.60;;;14.80;;
76403;SDS011;65232;48.358;2.122;2022-12-07T01:59:59;37.90;;;15.98;;
76403;SDS011;65232;48.358;2.122;2022-12-07T02:00:50;32.50;;;14.23;;
76403;SDS011;65232;48.358;2.122;2022-12-07T02:01:16;37.67;;;15.77;;
76403;SDS011;65232;48.358;2.122;2022-12-07T02:01:41;33.63;;;14.52;;
76403;SDS011;65232;48.358;2.122;2022-12-07T02:02:09;31.65;;;15.27;;
76403;SDS011;65232;48.358;2.122;2022-12-07T02:02:44;36.90;;;15.20;;
76403;SDS011;65232;48.358;2.122;2022-12-07T02:03:24;35.85;;;14.85;;
76403;SDS011;65232;48.358;2.122;2022-12-07T02:03:56;42.45;;;14.02;;
76403;SDS011;65232;48.358;2.122;2022-12-07T02:04:23;37.92;;;14.88;;
76403;SDS011;65232;48.358;2.122;2022-12-07T02:04:50;32.97;;;15.05;;
76403;SDS011;65232;48.358;2.122;2022-12-07T02:05:17;32.70;;;14.95;;
76403;SDS011;65232;48.358;2.122;2022-12-07T02:05:43;35.63;;;15.68;;
76403;SDS011;65232;48.358;2.122;2022-12-07T02:06:12;32.88;;;14.88;;
76403;SDS011;65232;48.358;2.122;2022-12-07T02:06:41;32.05;;;14.68;;
76403;SDS011;65232;48.358;2.122;2022-12-07T02:07:09;31.52;;;14.45;;
76403;SDS011;65232;48.358;2.122;2022-12-07T02:07:36;36.53;;;15.00;;
76403;SDS011;65232;48.358;2.122;2022-12-07T02:08:02;29.10;;;14.00;;
76403;SDS011;65232;48.358;2.122;2022-12-07T02:08:28;35.10;;;15.35;;
76403;SDS011;65232;48.358;2.122;2022-12-07T02:08:54;30.92;;;14.82;;
76403;SDS011;65232;48.358;2.122;2022-12-07T02:09:19;31.63;;;14.95;;
76403;SDS011;65232;48.358;2.122;2022-12-07T02:09:44;39.83;;;15.63;;
76403;SDS011;65232;48.358;2.122;2022-12-07T02:10:40;33.25;;;14.85;;
76403;SDS011;65232;48.358;2.122;2022-12-07T02:11:05;32.30;;;15.07;;
76403;SDS011;65232;48.358;2.122;2022-12-07T02:11:33;36.15;;;14.02;;
76403;SDS011;65232;48.358;2.122;2022-12-07T02:11:58;42.15;;;15.75;;
76403;SDS011;65232;48.358;2.122;2022-12-07T02:12:24;37.10;;;14.70;;
76403;SDS011;65232;48.358;2.122;2022-12-07T02:12:58;42.08;;;16.20;;
76403;SDS011;65232;48.358;2.122;2022-12-07T02:13:28;40.35;;;16.38;;
76403;SDS011;65232;48.358;2.122;2022-12-07T02:13:56;38.95;;;15.93;;
76403;SDS011;65232;48.358;2.122;2022-12-07T02:14:22;41.63;;;15.85;;
76403;SDS011;65232;48.358;2.122;2022-12-07T02:14:47;39.53;;;16.75;;
76403;SDS011;65232;48.358;2.122;2022-12-07T02:15:13;44.03;;;15.13;;
76403;SDS011;65232;48.358;2.122;2022-12-07T02:16:31;39.72;;;15.88;;
76403;SDS011;65232;48.358;2.122;2022-12-07T02:17:30;52.10;;;16.15;;
76403;SDS011;65232;48.358;2.122;2022-12-07T02:18:36;46.08;;;16.88;;
76403;SDS011;65232;48.358;2.122;2022-12-07T02:20:11;36.90;;;14.27;;
76403;SDS011;65232;48.358;2.122;2022-12-07T02:23:00;45.08;;;16.15;;
76403;SDS011;65232;48.358;2.122;2022-12-07T02:27:17;42.47;;;14.50;;
76403;SDS011;65232;48.358;2.122;2022-12-07T02:29:07;46.05;;;15.05;;
76403;SDS011;65232;48.358;2.122;2022-12-07T02:30:22;38.55;;;14.18;;
76403;SDS011;65232;48.358;2.122;2022-12-07T02:30:53;46.47;;;14.40;;
76403;SDS011;65232;48.358;2.122;2022-12-07T02:31:23;49.40;;;16.00;;
76403;SDS011;65232;48.358;2.122;2022-12-07T02:31:55;43.85;;;15.38;;
76403;SDS011;65232;48.358;2.122;2022-12-07T02:32:33;45.78;;;15.15;;
76403;SDS011;65232;48.358;2.122;2022-12-07T02:33:09;42.63;;;15.45;;
76403;SDS011;65232;48.358;2.122;2022-12-07T02:33:57;59.67;;;16.30;;
76403;SDS011;65232;48.358;2.122;2022-12-07T02:35:30;36.42;;;14.25;;
76403;SDS011;65232;48.358;2.122;2022-12-07T02:36:02;57.28;;;15.55;;
76403;SDS011;65232;48.358;2.122;2022-12-07T02:36:35;53.15;;;15.65;;
76403;SDS011;65232;48.358;2.122;2022-12-07T02:38:25;36.60;;;14.30;;
76403;SDS011;65232;48.358;2.122;2022-12-07T02:38:53;47.45;;;14.98;;
76403;SDS011;65232;48.358;2.122;2022-12-07T02:39:28;47.78;;;15.70;;
76403;SDS011;65232;48.358;2.122;2022-12-07T02:40:19;40.78;;;16.05;;
76403;SDS011;65232;48.358;2.122;2022-12-07T02:40:51;43.92;;;15.20;;
76403;SDS011;65232;48.358;2.122;2022-12-07T02:41:36;42.85;;;15.77;;
76403;SDS011;65232;48.358;2.122;2022-12-07T02:42:09;48.88;;;16.10;;
76403;SDS011;65232;48.358;2.122;2022-12-07T02:42:42;51.25;;;15.77;;
76403;SDS011;65232;48.358;2.122;2022-12-07T02:43:16;50.63;;;15.93;;
76403;SDS011;65232;48.358;2.122;2022-12-07T02:43:52;61.35;;;16.92;;
76403;SDS011;65232;48.358;2.122;2022-12-07T02:44:20;53.45;;;16.02;;
76403;SDS011;65232;48.358;2.122;2022-12-07T02:44:49;52.38;;;17.55;;
76403;SDS011;65232;48.358;2.122;2022-12-07T02:45:17;52.58;;;18.20;;
76403;SDS011;65232;48.358;2.122;2022-12-07T02:45:46;70.82;;;18.70;;
76403;SDS011;65232;48.358;2.122;2022-12-07T02:46:15;55.38;;;18.67;;
76403;SDS011;65232;48.358;2.122;2022-12-07T02:46:59;57.53;;;18.20;;
76403;SDS011;65232;48.358;2.122;2022-12-07T02:47:28;57.35;;;15.88;;
76403;SDS011;65232;48.358;2.122;2022-12-07T02:47:58;51.97;;;16.92;;
76403;SDS011;65232;48.358;2.122;2022-12-07T02:48:24;46.15;;;17.42;;
76403;SDS011;65232;48.358;2.122;2022-12-07T02:48:51;74.85;;;17.92;;
76403;SDS011;65232;48.358;2.122;2022-12-07T02:49:21;55.85;;;18.25;;
76403;SDS011;65232;48.358;2.122;2022-12-07T02:49:48;55.38;;;17.65;;
76403;SDS011;65232;48.358;2.122;2022-12-07T02:50:14;55.58;;;17.10;;
76403;SDS011;65232;48.358;2.122;2022-12-07T02:51:00;56.80;;;18.05;;
76403;SDS011;65232;48.358;2.122;2022-12-07T02:51:25;60.80;;;16.55;;
76403;SDS011;65232;48.358;2.122;2022-12-07T02:51:55;57.38;;;17.65;;
76403;SDS011;65232;48.358;2.122;2022-12-07T02:52:21;45.70;;;18.08;;
76403;SDS011;65232;48.358;2.122;2022-12-07T02:52:46;52.42;;;17.33;;
76403;SDS011;65232;48.358;2.122;2022-12-07T02:54:01;50.63;;;16.33;;
76403;SDS011;65232;48.358;2.122;2022-12-07T02:54:26;57.65;;;16.60;;
76403;SDS011;65232;48.358;2.122;2022-12-07T02:54:51;54.25;;;18.67;;
76403;SDS011;65232;48.358;2.122;2022-12-07T02:55:17;44.35;;;17.90;;
76403;SDS011;65232;48.358;2.122;2022-12-07T02:55:47;60.17;;;18.20;;
76403;SDS011;65232;48.358;2.122;2022-12-07T02:57:00;48.80;;;16.65;;
76403;SDS011;65232;48.358;2.122;2022-12-07T02:58:28;35.97;;;14.25;;
76403;SDS011;65232;48.358;2.122;2022-12-07T02:59:15;40.30;;;14.85;;
76403;SDS011;65232;48.358;2.122;2022-12-07T03:00:09;42.70;;;15.00;;
76403;SDS011;65232;48.358;2.122;2022-12-07T03:02:50;33.80;;;13.23;;
76403;SDS011;65232;48.358;2.122;2022-12-07T03:03:16;38.65;;;14.88;;